createdAt,value
2019-04-22T00:00:39.224Z,23.25
2019-04-22T00:02:51.417Z,23.21
2019-04-22T00:05:01.115Z,23.23
2019-04-22T00:07:24.088Z,23.22
2019-04-22T00:09:30.944Z,23.17
2019-04-22T00:11:35.506Z,23.20
2019-04-22T00:13:47.185Z,23.18
2019-04-22T00:15:44.184Z,23.17
2019-04-22T00:18:03.298Z,23.17
2019-04-22T00:20:06.319Z,23.19
2019-04-22T00:22:15.358Z,23.15
2019-04-22T00:24:18.749Z,23.13
2019-04-22T00:26:27.608Z,23.14
2019-04-22T00:28:33.423Z,23.12
2019-04-22T00:30:34.111Z,23.12
2019-04-22T00:33:03.495Z,23.11
2019-04-22T00:35:14.766Z,23.10
2019-04-22T00:37:16.981Z,23.09
2019-04-22T00:39:27.007Z,23.06
2019-04-22T00:41:35.867Z,23.05
2019-04-22T00:43:41.113Z,23.06
2019-04-22T00:47:57.712Z,23.04
2019-04-22T00:50:14.551Z,23.04
2019-04-22T00:52:09.341Z,23.02
2019-04-22T00:54:14.015Z,23.02
2019-04-22T00:56:28.283Z,23.01
2019-04-22T00:58:30.788Z,23.01
2019-04-22T01:00:39.182Z,23.00
2019-04-22T01:02:49.726Z,23.00
2019-04-22T01:04:55.890Z,23.00
2019-04-22T01:06:58.656Z,22.99
2019-04-22T01:09:04.387Z,22.98
2019-04-22T01:11:17.313Z,22.96
2019-04-22T01:13:19.536Z,22.96
2019-04-22T01:15:31.939Z,22.94
2019-04-22T01:17:32.911Z,22.93
2019-04-22T01:19:47.877Z,22.91
2019-04-22T01:21:45.073Z,22.90
2019-04-22T01:23:52.187Z,22.89
2019-04-22T01:25:51.399Z,22.91
2019-04-22T01:27:57.247Z,22.88
2019-04-22T01:30:03.684Z,22.88
2019-04-22T01:31:56.511Z,22.88
2019-04-22T01:34:16.176Z,22.87
2019-04-22T01:36:33.496Z,22.86
2019-04-22T01:38:36.649Z,22.86
2019-04-22T01:40:53.936Z,22.86
2019-04-22T01:43:02.159Z,22.86
2019-04-22T01:45:06.983Z,22.83
2019-04-22T01:47:10.436Z,22.81
2019-04-22T01:49:21.410Z,22.81
2019-04-22T01:51:28.255Z,22.81
2019-04-22T01:53:37.826Z,22.81
2019-04-22T01:55:40.295Z,22.80
2019-04-22T01:57:41.446Z,22.80
2019-04-22T01:59:41.749Z,22.79
2019-04-22T02:01:55.180Z,22.77
2019-04-22T02:04:08.866Z,22.75
2019-04-22T02:06:17.896Z,22.77
2019-04-22T02:08:28.418Z,22.77
2019-04-22T02:10:30.687Z,22.75
2019-04-22T02:12:33.250Z,22.74
2019-04-22T02:14:39.899Z,22.74
2019-04-22T02:16:50.342Z,22.73
2019-04-22T02:18:53.104Z,22.71
2019-04-22T02:21:01.765Z,22.71
2019-04-22T02:25:34.460Z,22.67
2019-04-22T02:27:43.221Z,22.65
2019-04-22T02:29:43.520Z,22.64
2019-04-22T02:38:19.460Z,22.63
2019-04-22T02:40:27.104Z,22.62
2019-04-22T02:42:16.632Z,22.62
2019-04-22T02:46:58.949Z,22.60
2019-04-22T02:53:03.633Z,22.58
2019-04-22T02:57:28.032Z,22.55
2019-04-22T03:01:33.112Z,22.54
2019-04-22T03:05:56.657Z,22.53
2019-04-22T03:08:02.341Z,22.53
2019-04-22T03:09:54.869Z,22.53
2019-04-22T03:12:11.527Z,22.50
2019-04-22T03:14:08.740Z,22.51
2019-04-22T03:18:33.502Z,22.50
2019-04-22T03:20:24.748Z,22.48
2019-04-22T03:22:41.885Z,22.48
2019-04-22T03:26:48.599Z,22.48
2019-04-22T03:32:14.886Z,22.44
2019-04-22T03:36:18.375Z,22.40
2019-04-22T03:38:47.828Z,22.39
2019-04-22T03:40:30.811Z,22.39
2019-04-22T03:42:23.443Z,22.39
2019-04-22T03:44:38.448Z,22.37
2019-04-22T03:46:53.429Z,22.38
2019-04-22T03:49:03.806Z,22.38
2019-04-22T03:50:52.439Z,22.37
2019-04-22T03:53:09.877Z,22.36
2019-04-22T03:55:10.925Z,22.34
2019-04-22T03:59:31.811Z,22.30
2019-04-22T04:01:36.956Z,22.31
2019-04-22T04:05:45.491Z,22.29
2019-04-22T04:10:01.836Z,22.28
2019-04-22T04:12:03.782Z,22.28
2019-04-22T04:14:18.124Z,22.28
2019-04-22T04:16:23.173Z,22.26
2019-04-22T04:18:19.220Z,22.24
2019-04-22T04:20:36.491Z,22.26
2019-04-22T04:22:59.005Z,22.24
2019-04-22T04:27:06.729Z,22.24
2019-04-22T04:31:09.895Z,22.23
2019-04-22T04:33:18.067Z,22.21
2019-04-22T04:35:30.478Z,22.19
2019-04-22T04:39:38.575Z,22.18
2019-04-22T04:43:54.568Z,22.16
2019-04-22T04:48:00.945Z,22.12
2019-04-22T04:50:12.288Z,22.12
2019-04-22T04:52:27.323Z,22.10
2019-04-22T04:54:41.463Z,22.11
2019-04-22T04:58:47.600Z,22.09
2019-04-22T05:02:55.916Z,22.09
2019-04-22T05:07:09.308Z,22.06
2019-04-22T05:09:15.111Z,22.05
2019-04-22T05:13:22.948Z,22.05
2019-04-22T05:15:29.764Z,22.06
2019-04-22T05:19:57.332Z,22.04
2019-04-22T05:21:46.967Z,22.02
2019-04-22T05:23:52.399Z,22.02
2019-04-22T05:26:07.469Z,22.01
2019-04-22T05:28:09.029Z,21.99
2019-04-22T05:30:23.742Z,22.00
2019-04-22T05:32:22.794Z,21.99
2019-04-22T05:34:33.484Z,21.98
2019-04-22T05:36:35.943Z,21.98
2019-04-22T05:38:49.393Z,21.96
2019-04-22T05:40:44.115Z,21.94
2019-04-22T05:42:51.479Z,21.93
2019-04-22T05:45:05.244Z,21.93
2019-04-22T05:47:08.069Z,21.93
2019-04-22T05:49:18.205Z,21.92
2019-04-22T05:51:25.814Z,21.93
2019-04-22T05:53:28.893Z,21.91
2019-04-22T05:55:36.066Z,21.89
2019-04-22T05:57:40.301Z,21.90
2019-04-22T05:59:52.249Z,21.89
2019-04-22T06:01:58.600Z,21.88
2019-04-22T06:04:05.261Z,21.87
2019-04-22T06:06:09.367Z,21.85
2019-04-22T06:08:19.906Z,21.85
2019-04-22T06:10:31.082Z,21.85
2019-04-22T06:12:23.309Z,21.86
2019-04-22T06:14:34.644Z,21.82
2019-04-22T06:16:45.733Z,21.84
2019-04-22T06:18:47.009Z,21.84
2019-04-22T06:20:59.352Z,21.84
2019-04-22T06:23:04.509Z,21.82
2019-04-22T06:27:21.200Z,21.81
2019-04-22T06:29:25.376Z,21.82
2019-04-22T06:33:43.763Z,21.80
2019-04-22T06:35:54.585Z,21.80
2019-04-22T06:39:58.793Z,21.82
2019-04-22T06:42:08.135Z,21.80
2019-04-22T06:46:20.614Z,21.79
2019-04-22T06:50:40.179Z,21.83
2019-04-22T06:52:38.283Z,21.82
2019-04-22T06:54:49.790Z,21.84
2019-04-22T06:56:54.671Z,21.83
2019-04-22T06:58:57.765Z,21.84
2019-04-22T07:01:09.845Z,21.84
2019-04-22T07:03:34.653Z,21.85
2019-04-22T07:05:25.104Z,21.84
2019-04-22T07:07:33.385Z,21.85
2019-04-22T07:09:42.813Z,21.84
2019-04-22T07:11:43.347Z,21.86
2019-04-22T07:13:53.876Z,21.87
2019-04-22T07:16:13.702Z,21.88
2019-04-22T07:18:05.918Z,21.89
2019-04-22T07:20:10.546Z,21.90
2019-04-22T07:22:16.233Z,21.89
2019-04-22T07:26:24.829Z,21.88
2019-04-22T07:28:32.561Z,21.90
2019-04-22T07:30:50.725Z,21.94
2019-04-22T07:33:15.109Z,21.94
2019-04-22T07:34:59.256Z,21.90
2019-04-22T07:39:21.860Z,21.91
2019-04-22T07:41:21.895Z,21.89
2019-04-22T07:45:40.800Z,21.90
2019-04-22T07:47:40.925Z,21.91
2019-04-22T07:51:50.189Z,21.91
2019-04-22T07:54:01.845Z,21.94
2019-04-22T07:56:05.343Z,21.93
2019-04-22T07:58:18.497Z,21.94
2019-04-22T08:00:25.016Z,21.95
2019-04-22T08:02:32.734Z,21.95
2019-04-22T08:04:54.795Z,21.95
2019-04-22T08:06:46.115Z,21.96
2019-04-22T08:09:00.413Z,21.98
2019-04-22T08:10:59.413Z,21.95
2019-04-22T08:12:57.932Z,21.98
2019-04-22T08:15:05.476Z,21.97
2019-04-22T08:17:43.188Z,21.98
2019-04-22T08:19:28.107Z,22.00
2019-04-22T08:21:29.784Z,21.99
2019-04-22T08:23:35.471Z,22.01
2019-04-22T08:25:42.882Z,22.01
2019-04-22T08:27:51.896Z,22.01
2019-04-22T08:30:12.231Z,22.02
2019-04-22T08:31:59.500Z,22.00
2019-04-22T08:34:14.181Z,22.02
2019-04-22T08:36:36.379Z,22.02
2019-04-22T08:38:24.173Z,22.05
2019-04-22T08:40:36.361Z,22.05
2019-04-22T08:42:55.561Z,22.05
2019-04-22T08:46:57.822Z,22.08
2019-04-22T08:51:08.802Z,22.07
2019-04-22T08:53:19.827Z,22.10
2019-04-22T08:55:17.421Z,22.08
2019-04-22T08:57:40.825Z,22.11
2019-04-22T08:59:28.242Z,22.12
2019-04-22T09:01:35.949Z,22.12
2019-04-22T09:03:48.715Z,22.12
2019-04-22T09:07:59.795Z,22.14
2019-04-22T09:10:26.650Z,22.15
2019-04-22T09:12:23.898Z,22.15
2019-04-22T09:14:31.304Z,22.16
2019-04-22T09:18:40.996Z,22.17
2019-04-22T09:20:51.459Z,22.17
2019-04-22T09:22:56.864Z,22.18
2019-04-22T09:24:57.267Z,22.19
2019-04-22T09:27:15.933Z,22.19
2019-04-22T09:29:20.727Z,22.21
2019-04-22T09:31:19.262Z,22.23
2019-04-22T09:33:27.607Z,22.23
2019-04-22T09:35:37.418Z,22.24
2019-04-22T09:37:48.317Z,22.26
2019-04-22T09:40:01.072Z,22.24
2019-04-22T09:41:59.259Z,22.26
2019-04-22T09:44:02.080Z,22.25
2019-04-22T09:46:08.147Z,22.27
2019-04-22T09:48:16.588Z,22.27
2019-04-22T09:52:29.446Z,22.32
2019-04-22T09:54:51.151Z,22.33
2019-04-22T09:56:47.008Z,22.36
2019-04-22T09:58:52.322Z,22.37
2019-04-22T10:01:18.722Z,22.37
2019-04-22T10:03:19.945Z,22.40
2019-04-22T10:05:27.439Z,22.38
2019-04-22T10:07:32.473Z,22.41
2019-04-22T10:11:47.780Z,22.42
2019-04-22T10:14:01.966Z,22.44
2019-04-22T10:16:02.613Z,22.43
2019-04-22T10:18:09.824Z,22.47
2019-04-22T10:20:16.747Z,22.45
2019-04-22T10:22:28.019Z,22.51
2019-04-22T10:24:26.460Z,22.53
2019-04-22T10:26:39.403Z,22.54
2019-04-22T10:28:44.450Z,22.54
2019-04-22T10:31:00.401Z,22.57
2019-04-22T10:32:53.848Z,22.61
2019-04-22T10:34:58.838Z,22.62
2019-04-22T10:37:02.793Z,22.63
2019-04-22T10:39:04.517Z,22.66
2019-04-22T10:41:12.396Z,22.65
2019-04-22T10:43:19.151Z,22.70
2019-04-22T10:45:28.323Z,22.71
2019-04-22T10:47:35.800Z,22.73
2019-04-22T10:49:42.451Z,22.75
2019-04-22T10:51:48.787Z,22.76
2019-04-22T10:53:53.813Z,22.77
2019-04-22T10:56:03.416Z,22.80
2019-04-22T10:58:08.677Z,22.80
2019-04-22T11:00:15.457Z,22.82
2019-04-22T11:02:21.566Z,22.85
2019-04-22T11:04:27.946Z,22.87
2019-04-22T11:06:40.936Z,22.89
2019-04-22T11:08:48.639Z,22.90
2019-04-22T11:11:04.841Z,22.92
2019-04-22T11:12:56.797Z,22.91
2019-04-22T11:15:03.524Z,22.92
2019-04-22T11:17:09.011Z,22.96
2019-04-22T11:19:17.331Z,22.98
2019-04-22T11:21:23.320Z,22.95
2019-04-22T11:23:28.837Z,22.99
2019-04-22T11:25:37.489Z,23.00
2019-04-22T11:27:44.192Z,23.03
2019-04-22T11:29:49.779Z,23.04
2019-04-22T11:32:00.321Z,23.05
2019-04-22T11:34:06.242Z,23.05
2019-04-22T11:36:11.495Z,23.08
2019-04-22T11:38:17.284Z,23.09
2019-04-22T11:40:33.785Z,23.09
2019-04-22T11:42:32.386Z,23.13
2019-04-22T11:44:41.244Z,23.13
2019-04-22T11:46:47.484Z,23.15
2019-04-22T11:48:53.952Z,23.17
2019-04-22T11:51:00.105Z,23.17
2019-04-22T11:53:08.968Z,23.20
2019-04-22T11:55:14.929Z,23.21
2019-04-22T11:57:21.166Z,23.21
2019-04-22T11:59:29.035Z,23.23
2019-04-22T12:03:46.496Z,23.23
2019-04-22T12:05:52.215Z,23.25
2019-04-22T12:07:57.451Z,23.26
2019-04-22T12:10:17.866Z,23.28
2019-04-22T12:12:15.963Z,23.28
2019-04-22T12:14:22.322Z,23.31
2019-04-22T12:16:27.547Z,23.32
2019-04-22T12:18:39.630Z,23.32
2019-04-22T12:21:03.409Z,23.34
2019-04-22T12:23:30.421Z,23.33
2019-04-22T12:25:46.341Z,23.35
2019-04-22T12:27:43.164Z,23.38
2019-04-22T12:29:49.026Z,23.36
2019-04-22T12:31:55.278Z,23.40
2019-04-22T12:34:01.919Z,23.42
2019-04-22T12:36:08.616Z,23.45
2019-04-22T12:38:16.213Z,23.46
2019-04-22T12:40:31.473Z,23.49
2019-04-22T12:42:27.240Z,23.51
2019-04-22T12:44:32.807Z,23.53
2019-04-22T12:46:41.860Z,23.55
2019-04-22T12:48:47.178Z,23.57
2019-04-22T12:50:56.004Z,23.58
2019-04-22T12:53:04.835Z,23.61
2019-04-22T12:55:07.997Z,23.62
2019-04-22T12:57:14.779Z,23.67
2019-04-22T12:59:19.832Z,23.68
2019-04-22T13:01:24.902Z,23.68
2019-04-22T13:03:34.138Z,23.71
2019-04-22T13:05:47.213Z,23.74
2019-04-22T13:07:58.181Z,23.77
2019-04-22T13:10:08.476Z,23.75
2019-04-22T13:12:17.046Z,23.74
2019-04-22T13:14:23.170Z,23.76
2019-04-22T13:16:33.206Z,23.78
2019-04-22T13:18:47.259Z,23.80
2019-04-22T13:20:46.277Z,23.83
2019-04-22T13:22:52.808Z,23.84
2019-04-22T13:24:58.042Z,23.86
2019-04-22T13:27:04.359Z,23.90
2019-04-22T13:29:10.723Z,23.94
2019-04-22T13:31:16.094Z,23.96
2019-04-22T13:33:23.336Z,23.96
2019-04-22T13:35:29.708Z,23.98
2019-04-22T13:37:35.126Z,24.00
2019-04-22T13:39:40.991Z,23.99
2019-04-22T13:41:51.748Z,24.02
2019-04-22T13:43:53.898Z,24.07
2019-04-22T13:45:59.172Z,24.10
2019-04-22T13:48:26.725Z,24.10
2019-04-22T13:50:49.529Z,24.12
2019-04-22T13:53:00.545Z,24.14
2019-04-22T13:56:55.161Z,24.15
2019-04-22T13:58:52.470Z,24.17
2019-04-22T14:00:46.798Z,24.20
2019-04-22T14:03:26.689Z,24.21
2019-04-22T14:05:32.939Z,24.23
2019-04-22T14:07:38.852Z,24.18
2019-04-22T14:09:46.535Z,24.20
2019-04-22T14:11:58.529Z,24.24
2019-04-22T14:13:58.811Z,24.26
2019-04-22T14:16:04.778Z,24.27
2019-04-22T14:18:10.746Z,24.29
2019-04-22T14:20:16.066Z,24.26
2019-04-22T14:22:22.030Z,24.29
2019-04-22T14:24:27.892Z,24.30
2019-04-22T14:26:44.246Z,24.32
2019-04-22T14:28:39.923Z,24.32
2019-04-22T14:30:46.392Z,24.33
2019-04-22T14:32:51.564Z,24.34
2019-04-22T14:34:57.357Z,24.35
2019-04-22T14:37:03.554Z,24.34
2019-04-22T14:39:10.138Z,24.34
2019-04-22T14:41:34.232Z,24.38
2019-04-22T14:43:49.965Z,24.36
2019-04-22T14:46:04.025Z,24.36
2019-04-22T14:48:04.455Z,24.38
2019-04-22T14:50:05.230Z,24.37
2019-04-22T14:52:15.310Z,24.40
2019-04-22T14:54:15.662Z,24.41
2019-04-22T14:56:04.435Z,24.40
2019-04-22T14:58:10.875Z,24.41
2019-04-22T15:00:18.052Z,24.41
2019-04-22T15:02:23.672Z,24.41
2019-04-22T15:04:31.004Z,24.42
2019-04-22T15:06:36.209Z,24.43
2019-04-22T15:08:42.625Z,24.42
2019-04-22T15:10:47.819Z,24.43
2019-04-22T15:12:55.387Z,24.43
2019-04-22T15:15:01.769Z,24.42
2019-04-22T15:17:33.291Z,24.45
2019-04-22T15:19:43.505Z,24.46
2019-04-22T15:21:48.743Z,24.46
2019-04-22T15:23:53.790Z,24.47
2019-04-22T15:25:59.091Z,24.47
2019-04-22T15:28:05.668Z,24.49
2019-04-22T15:30:11.648Z,24.51
2019-04-22T15:32:17.621Z,24.51
2019-04-22T15:34:22.748Z,24.53
2019-04-22T15:36:28.298Z,24.57
2019-04-22T15:38:34.233Z,24.53
2019-04-22T15:40:40.659Z,24.57
2019-04-22T15:42:47.088Z,24.62
2019-04-22T15:44:53.945Z,24.59
2019-04-22T15:46:58.962Z,24.60
2019-04-22T15:49:04.315Z,24.61
2019-04-22T15:51:10.896Z,24.66
2019-04-22T15:53:17.897Z,24.63
2019-04-22T15:55:23.076Z,24.65
2019-04-22T15:57:28.872Z,24.65
2019-04-22T15:59:50.511Z,24.68
2019-04-22T16:01:42.634Z,24.68
2019-04-22T16:03:47.577Z,24.66
2019-04-22T16:05:54.238Z,24.66
2019-04-22T16:08:01.170Z,24.67
2019-04-22T16:10:09.987Z,24.68
2019-04-22T16:12:22.460Z,24.69
2019-04-22T16:14:31.160Z,24.68
2019-04-22T16:16:30.522Z,24.65
2019-04-22T16:18:36.121Z,24.69
2019-04-22T16:20:43.795Z,24.66
2019-04-22T16:23:10.848Z,24.65
2019-04-22T16:25:35.267Z,24.65
2019-04-22T16:27:42.650Z,24.65
2019-04-22T16:29:49.716Z,24.59
2019-04-22T16:31:55.595Z,24.59
2019-04-22T16:34:02.677Z,24.63
2019-04-22T16:36:08.963Z,24.64
2019-04-22T16:38:15.118Z,24.64
2019-04-22T16:40:22.760Z,24.63
2019-04-22T16:42:38.734Z,24.65
2019-04-22T16:44:34.708Z,24.63
2019-04-22T16:46:39.727Z,24.64
2019-04-22T16:48:45.459Z,24.63
2019-04-22T16:50:51.160Z,24.64
2019-04-22T16:52:57.920Z,24.65
2019-04-22T16:55:03.596Z,24.66
2019-04-22T16:57:10.158Z,24.66
2019-04-22T16:59:15.299Z,24.63
2019-04-22T17:01:52.756Z,24.65
2019-04-22T17:04:06.975Z,24.63
2019-04-22T17:06:19.445Z,24.62
2019-04-22T17:08:24.681Z,24.62
2019-04-22T17:10:29.783Z,24.58
2019-04-22T17:12:44.316Z,24.60
2019-04-22T17:14:49.874Z,24.62
2019-04-22T17:16:48.598Z,24.62
2019-04-22T17:18:54.226Z,24.63
2019-04-22T17:21:01.170Z,24.61
2019-04-22T17:23:07.437Z,24.62
2019-04-22T17:25:14.026Z,24.62
2019-04-22T17:27:20.313Z,24.61
2019-04-22T17:29:26.316Z,24.61
2019-04-22T17:31:31.500Z,24.61
2019-04-22T17:33:37.142Z,24.61
2019-04-22T17:35:45.372Z,24.61
2019-04-22T17:38:03.087Z,24.56
2019-04-22T17:40:15.846Z,24.60
2019-04-22T17:42:28.206Z,24.58
2019-04-22T17:44:39.985Z,24.56
2019-04-22T17:46:46.385Z,24.55
2019-04-22T17:49:34.098Z,24.56
2019-04-22T17:51:36.684Z,24.55
2019-04-22T17:53:46.425Z,24.50
2019-04-22T17:56:08.656Z,24.51
2019-04-22T17:57:52.502Z,24.50
2019-04-22T18:00:03.667Z,24.52
2019-04-22T18:02:02.498Z,24.50
2019-04-22T18:03:59.529Z,24.50
2019-04-22T18:06:08.839Z,24.52
2019-04-22T18:08:29.091Z,24.50
2019-04-22T18:10:36.046Z,24.51
2019-04-22T18:12:50.078Z,24.52
2019-04-22T18:15:01.010Z,24.53
2019-04-22T18:16:52.029Z,24.51
2019-04-22T18:19:08.950Z,24.50
2019-04-22T18:21:05.012Z,24.53
2019-04-22T18:23:05.682Z,24.49
2019-04-22T18:25:16.363Z,24.49
2019-04-22T18:29:33.057Z,24.50
2019-04-22T18:31:37.183Z,24.50
2019-04-22T18:33:48.962Z,24.47
2019-04-22T18:35:58.373Z,24.50
2019-04-22T18:38:10.982Z,24.46
2019-04-22T18:40:07.956Z,24.48
2019-04-22T18:42:17.955Z,24.50
2019-04-22T18:44:28.313Z,24.47
2019-04-22T18:46:34.380Z,24.50
2019-04-22T18:48:38.882Z,24.47
2019-04-22T18:50:56.243Z,24.45
2019-04-22T18:53:19.534Z,24.45
2019-04-22T18:55:22.533Z,24.47
2019-04-22T18:57:46.055Z,24.45
2019-04-22T18:59:43.177Z,24.42
2019-04-22T19:01:46.051Z,24.44
2019-04-22T19:04:01.301Z,24.46
2019-04-22T19:06:31.893Z,24.46
2019-04-22T19:08:28.696Z,24.45
2019-04-22T19:10:43.141Z,24.45
2019-04-22T19:12:58.559Z,24.46
2019-04-22T19:14:56.689Z,24.46
2019-04-22T19:17:07.653Z,24.47
2019-04-22T19:19:22.486Z,24.42
2019-04-22T19:21:13.603Z,24.43
2019-04-22T19:23:20.661Z,24.41
2019-04-22T19:25:17.308Z,24.42
2019-04-22T19:27:30.955Z,24.42
2019-04-22T19:29:39.746Z,24.42
2019-04-22T19:31:48.401Z,24.41
2019-04-22T19:33:56.288Z,24.41
2019-04-22T19:36:02.509Z,24.42
2019-04-22T19:37:57.589Z,24.44
2019-04-22T19:40:14.845Z,24.43
2019-04-22T19:42:25.208Z,24.43
2019-04-22T19:44:26.243Z,24.43
2019-04-22T19:46:28.606Z,24.40
2019-04-22T19:48:50.100Z,24.38
2019-04-22T19:50:54.348Z,24.41
2019-04-22T19:52:53.109Z,24.36
2019-04-22T19:55:03.338Z,24.38
2019-04-22T19:56:59.096Z,24.37
2019-04-22T19:59:09.752Z,24.35
2019-04-22T20:01:36.912Z,24.36
2019-04-22T20:04:03.410Z,24.34
2019-04-22T20:06:11.384Z,24.33
2019-04-22T20:08:21.243Z,24.32
2019-04-22T20:10:25.131Z,24.33
2019-04-22T20:12:27.947Z,24.29
2019-04-22T20:14:40.271Z,24.32
2019-04-22T20:16:37.499Z,24.29
2019-04-22T20:18:56.610Z,24.28
2019-04-22T20:20:58.484Z,24.25
2019-04-22T20:23:02.864Z,24.25
2019-04-22T20:25:00.374Z,24.23
2019-04-22T20:27:20.337Z,24.20
2019-04-22T20:29:31.007Z,24.20
2019-04-22T20:31:31.771Z,24.18
2019-04-22T20:33:48.173Z,24.16
2019-04-22T20:35:44.835Z,24.12
2019-04-22T20:37:54.986Z,24.14
2019-04-22T20:40:00.740Z,24.14
2019-04-22T20:42:16.496Z,24.12
2019-04-22T20:44:19.230Z,24.12
2019-04-22T20:46:20.320Z,24.10
2019-04-22T20:48:13.492Z,24.07
2019-04-22T20:50:34.785Z,24.05
2019-04-22T20:52:48.335Z,24.04
2019-04-22T20:54:45.362Z,24.02
2019-04-22T20:56:49.773Z,24.02
2019-04-22T20:59:02.029Z,24.02
2019-04-22T21:00:59.844Z,24.02
2019-04-22T21:03:05.234Z,24.02
2019-04-22T21:05:14.563Z,23.95
2019-04-22T21:07:24.287Z,23.95
2019-04-22T21:09:33.440Z,23.94
2019-04-22T21:11:42.302Z,23.95
2019-04-22T21:13:41.006Z,23.96
2019-04-22T21:15:59.222Z,23.94
2019-04-22T21:18:00.929Z,23.94
2019-04-22T21:20:14.080Z,23.91
2019-04-22T21:22:19.371Z,23.92
2019-04-22T21:24:20.659Z,23.90
2019-04-22T21:26:24.442Z,23.91
2019-04-22T21:28:38.367Z,23.88
2019-04-22T21:30:37.759Z,23.90
2019-04-22T21:32:45.401Z,23.86
2019-04-22T21:35:03.874Z,23.88
2019-04-22T21:37:12.098Z,23.83
2019-04-22T21:39:09.642Z,23.87
2019-04-22T21:41:15.792Z,23.84
2019-04-22T21:43:27.106Z,23.83
2019-04-22T21:45:26.484Z,23.78
2019-04-22T21:47:48.802Z,23.78
2019-04-22T21:49:53.399Z,23.79
2019-04-22T21:51:53.562Z,23.77
2019-04-22T21:54:04.263Z,23.77
2019-04-22T21:56:27.284Z,23.79
2019-04-22T21:58:26.134Z,23.77
2019-04-22T22:02:47.424Z,23.73
2019-04-22T22:04:44.098Z,23.74
2019-04-22T22:06:41.238Z,23.73
2019-04-22T22:09:01.016Z,23.73
2019-04-22T22:11:06.562Z,23.70
2019-04-22T22:13:10.915Z,23.71
2019-04-22T22:15:20.574Z,23.72
2019-04-22T22:17:28.218Z,23.70
2019-04-22T22:19:32.402Z,23.68
2019-04-22T22:21:47.855Z,23.69
2019-04-22T22:23:55.877Z,23.68
2019-04-22T22:25:55.217Z,23.68
2019-04-22T22:28:01.693Z,23.66
2019-04-22T22:30:29.398Z,23.67
2019-04-22T22:32:16.572Z,23.64
2019-04-22T22:34:24.486Z,23.64
2019-04-22T22:36:23.700Z,23.64
2019-04-22T22:38:33.177Z,23.64
2019-04-22T22:40:27.702Z,23.62
2019-04-22T22:42:36.965Z,23.63
2019-04-22T22:44:41.673Z,23.61
2019-04-22T22:46:59.027Z,23.61
2019-04-22T22:49:10.251Z,23.60
2019-04-22T22:51:18.571Z,23.57
2019-04-22T22:55:31.312Z,23.58
2019-04-22T22:57:39.834Z,23.58
2019-04-22T22:59:45.549Z,23.54
2019-04-22T23:01:50.558Z,23.55
2019-04-22T23:03:57.678Z,23.53
2019-04-22T23:06:15.171Z,23.53
2019-04-22T23:08:16.944Z,23.54
2019-04-22T23:10:17.597Z,23.54
2019-04-22T23:12:37.570Z,23.52
2019-04-22T23:14:34.450Z,23.53
2019-04-22T23:16:28.201Z,23.53
2019-04-22T23:18:25.778Z,23.51
2019-04-22T23:20:37.452Z,23.48
2019-04-22T23:23:03.924Z,23.48
2019-04-22T23:25:14.474Z,23.50
2019-04-22T23:27:10.220Z,23.48
2019-04-22T23:29:32.188Z,23.48
2019-04-22T23:31:42.038Z,23.45
2019-04-22T23:33:57.178Z,23.44
2019-04-22T23:36:16.347Z,23.45
2019-04-22T23:38:25.568Z,23.43
2019-04-22T23:40:39.000Z,23.44
2019-04-22T23:42:46.867Z,23.40
2019-04-22T23:44:50.130Z,23.42
2019-04-22T23:47:10.927Z,23.41
2019-04-22T23:49:17.985Z,23.42
2019-04-22T23:51:28.097Z,23.40
2019-04-22T23:53:58.236Z,23.41
2019-04-22T23:55:49.936Z,23.40
2019-04-22T23:57:58.435Z,23.40
